Time;durP1;ratioP1;P1;durP2;ratioP2;P2;SDS_P1;SDS_P2;PMS_P1;PMS_P2;Temp;Humidity;BMP_temperature;BMP_pressure;BME280_temperature;BME280_humidity;BME280_pressure;Samples;Min_cycle;Max_cycle;Signal;HPM_P1;HPM_P2
2021/09/07 00:00:13;;;;;;;21.43;17.77;;;16.50;99.90;;;;;;4940473;28;20227;-74
2021/09/07 00:02:40;;;;;;;19.70;17.60;;;16.50;99.90;;;;;;4946292;28;20282;-73
2021/09/07 00:05:10;;;;;;;19.20;17.03;;;16.50;99.90;;;;;;4940506;28;20733;-74
2021/09/07 00:07:40;;;;;;;22.13;18.77;;;16.40;99.90;;;;;;4941402;28;20619;-74
2021/09/07 00:10:08;;;;;;;22.00;19.10;;;16.40;99.90;;;;;;4940924;28;20677;-74
2021/09/07 00:12:34;;;;;;;21.57;17.70;;;16.50;99.90;;;;;;4938707;28;21946;-74
2021/09/07 00:15:00;;;;;;;23.27;18.67;;;16.50;99.90;;;;;;4941461;28;20682;-74
2021/09/07 00:17:26;;;;;;;19.03;17.13;;;16.50;99.90;;;;;;4944292;28;20194;-73
2021/09/07 00:19:51;;;;;;;20.40;17.43;;;16.50;99.90;;;;;;4941069;28;20619;-74
2021/09/07 00:22:17;;;;;;;24.63;19.37;;;16.50;99.90;;;;;;4942447;28;20211;-74
2021/09/07 00:24:43;;;;;;;21.30;17.30;;;16.50;99.90;;;;;;4937543;28;20269;-75
2021/09/07 00:27:09;;;;;;;21.83;18.07;;;16.50;99.90;;;;;;4939400;28;20737;-74
2021/09/07 00:29:37;;;;;;;21.17;18.77;;;16.50;99.90;;;;;;4942169;28;20188;-74
2021/09/07 00:32:02;;;;;;;22.60;20.07;;;16.40;99.90;;;;;;4941017;28;20234;-74
2021/09/07 00:34:30;;;;;;;23.10;19.77;;;16.40;99.90;;;;;;4939867;28;20631;-73
2021/09/07 00:36:56;;;;;;;20.57;18.47;;;16.40;99.90;;;;;;4943274;28;20286;-74
2021/09/07 00:39:24;;;;;;;23.47;18.80;;;16.40;99.90;;;;;;4941303;28;20742;-74
2021/09/07 00:41:52;;;;;;;20.73;18.63;;;16.50;99.90;;;;;;4960735;28;20226;-74
2021/09/07 00:44:22;;;;;;;21.23;17.80;;;16.50;99.90;;;;;;4945489;28;20678;-74
2021/09/07 00:47:02;;;;;;;23.13;19.90;;;16.50;99.90;;;;;;4938225;28;21189;-74
2021/09/07 00:49:32;;;;;;;20.60;18.47;;;16.50;99.90;;;;;;4939790;28;20623;-74
2021/09/07 00:51:58;;;;;;;21.63;17.87;;;16.50;99.90;;;;;;4941675;28;21014;-74
2021/09/07 00:54:32;;;;;;;22.77;20.33;;;16.50;99.90;;;;;;4920045;28;20619;-74
2021/09/07 00:57:01;;;;;;;22.50;19.20;;;16.50;99.90;;;;;;4921240;29;20293;-74
2021/09/07 00:59:28;;;;;;;23.80;19.73;;;16.50;99.90;;;;;;4939654;28;20697;-74
2021/09/07 01:01:54;;;;;;;22.67;19.57;;;16.50;99.90;;;;;;4940116;28;21018;-74
2021/09/07 01:04:21;;;;;;;22.10;18.30;;;16.50;99.90;;;;;;4940808;28;20705;-74
2021/09/07 01:06:47;;;;;;;21.50;19.20;;;16.50;99.90;;;;;;4922676;29;20223;-74
2021/09/07 01:09:14;;;;;;;21.20;18.27;;;16.50;99.90;;;;;;4941487;28;21221;-74
2021/09/07 01:11:40;;;;;;;23.27;19.30;;;16.50;99.90;;;;;;4926450;28;20305;-74
2021/09/07 01:14:15;;;;;;;21.07;18.83;;;16.50;99.90;;;;;;4938336;28;20722;-74
2021/09/07 01:16:43;;;;;;;21.60;19.40;;;16.60;99.90;;;;;;4937073;28;20227;-74
2021/09/07 01:19:11;;;;;;;22.00;19.60;;;16.60;99.90;;;;;;4916886;28;20633;-74
2021/09/07 01:21:39;;;;;;;23.13;20.17;;;16.50;99.90;;;;;;4940805;28;20681;-74
2021/09/07 01:24:04;;;;;;;21.33;18.60;;;16.50;99.90;;;;;;4924156;29;21245;-74
2021/09/07 01:26:34;;;;;;;21.50;19.17;;;16.50;99.90;;;;;;4937434;28;20635;-75
2021/09/07 01:29:00;;;;;;;24.23;20.60;;;16.50;99.90;;;;;;4938225;28;20206;-75
2021/09/07 01:31:26;;;;;;;21.40;19.20;;;16.50;99.90;;;;;;4939441;28;20663;-73
2021/09/07 01:33:52;;;;;;;22.20;19.80;;;16.50;99.90;;;;;;4940277;28;20676;-74
2021/09/07 01:36:22;;;;;;;22.27;19.20;;;16.50;99.90;;;;;;4938405;28;20250;-73
2021/09/07 01:38:48;;;;;;;23.80;21.33;;;16.50;99.90;;;;;;4936534;28;20274;-74
2021/09/07 01:41:14;;;;;;;21.70;19.17;;;16.50;99.90;;;;;;4938294;28;20778;-74
2021/09/07 01:43:39;;;;;;;23.40;19.60;;;16.50;99.90;;;;;;4940150;28;20636;-73
2021/09/07 01:46:07;;;;;;;25.30;19.97;;;16.50;99.90;;;;;;4937870;28;20690;-73
2021/09/07 01:48:35;;;;;;;22.67;17.10;;;16.40;99.90;;;;;;4939469;28;20196;-74
2021/09/07 01:51:01;;;;;;;24.43;18.33;;;16.40;99.90;;;;;;4944870;28;20776;-74
2021/09/07 01:53:29;;;;;;;25.60;20.47;;;16.40;99.90;;;;;;4933902;28;20747;-75
2021/09/07 01:55:54;;;;;;;22.80;20.07;;;16.40;99.90;;;;;;4936617;28;20305;-74
2021/09/07 01:58:20;;;;;;;23.27;19.70;;;16.40;99.90;;;;;;4917978;29;20651;-74
2021/09/07 02:00:45;;;;;;;22.67;17.80;;;16.40;99.90;;;;;;4934939;28;20256;-73
2021/09/07 02:03:14;;;;;;;121.17;112.90;;;16.40;99.90;;;;;;4936254;28;20219;-75
2021/09/07 02:05:41;;;;;;;577.77;529.80;;;16.40;99.90;;;;;;4937780;28;24417;-74
2021/09/07 02:08:07;;;;;;;816.58;760.67;;;16.40;99.90;;;;;;4924108;28;24444;-74
2021/09/07 02:10:33;;;;;;;157.33;140.87;;;16.40;99.90;;;;;;4938801;28;20242;-74
2021/09/07 02:12:58;;;;;;;23.38;20.23;;;16.40;99.90;;;;;;4938588;29;24434;-74
2021/09/07 02:15:29;;;;;;;136.57;122.27;;;16.50;99.90;;;;;;4938135;28;20768;-74
2021/09/07 02:17:57;;;;;;;22.40;20.00;;;16.50;99.90;;;;;;4938464;28;20680;-75
2021/09/07 02:20:26;;;;;;;201.20;172.00;;;16.50;99.90;;;;;;4918994;29;21360;-74
2021/09/07 02:22:51;;;;;;;19.90;16.80;;;16.40;99.90;;;;;;4922086;29;20643;-74
2021/09/07 02:25:22;;;;;;;19.50;16.43;;;16.30;99.90;;;;;;4935309;28;20756;-74
2021/09/07 02:27:48;;;;;;;21.07;18.80;;;16.30;99.90;;;;;;4939780;28;20230;-74
2021/09/07 02:30:19;;;;;;;21.60;17.80;;;16.20;99.90;;;;;;4934777;28;20749;-74
2021/09/07 02:32:45;;;;;;;20.03;17.60;;;16.10;99.90;;;;;;4936760;28;20561;-74
2021/09/07 02:35:10;;;;;;;21.43;19.13;;;16.10;99.90;;;;;;4935634;28;20636;-75
2021/09/07 02:37:36;;;;;;;24.40;20.43;;;16.10;99.90;;;;;;4933381;28;20271;-74
2021/09/07 02:40:02;;;;;;;22.07;19.67;;;16.00;99.90;;;;;;4934406;28;20191;-73
2021/09/07 02:42:27;;;;;;;22.07;19.87;;;15.90;99.90;;;;;;4940667;28;20210;-73
2021/09/07 02:44:55;;;;;;;23.03;19.83;;;15.90;99.90;;;;;;4936426;28;20239;-73
2021/09/07 02:47:20;;;;;;;24.43;19.00;;;15.80;99.90;;;;;;4934483;28;20202;-73
2021/09/07 02:49:46;;;;;;;24.60;20.07;;;15.80;99.90;;;;;;4939933;28;20628;-74
2021/09/07 02:52:19;;;;;;;22.13;18.90;;;15.70;99.90;;;;;;4938477;28;20634;-74
2021/09/07 02:54:44;;;;;;;24.70;20.73;;;15.80;99.90;;;;;;4933812;28;20229;-74
2021/09/07 02:57:12;;;;;;;26.20;20.40;;;15.70;99.90;;;;;;4919927;29;20623;-74
2021/09/07 02:59:40;;;;;;;21.03;18.83;;;15.70;99.90;;;;;;4938705;28;20667;-74
2021/09/07 03:02:06;;;;;;;22.00;18.60;;;15.70;99.90;;;;;;4934696;28;20654;-74
2021/09/07 03:04:34;;;;;;;21.13;18.90;;;15.70;99.90;;;;;;4936432;28;20659;-74
2021/09/07 03:07:00;;;;;;;20.67;17.73;;;15.70;99.90;;;;;;4934901;28;20640;-74
2021/09/07 03:09:25;;;;;;;20.77;16.50;;;15.60;99.90;;;;;;4933841;28;20670;-73
2021/09/07 03:11:51;;;;;;;21.00;17.00;;;15.60;99.90;;;;;;4937821;28;20338;-74
2021/09/07 03:14:21;;;;;;;44.30;39.23;;;15.60;99.90;;;;;;4936779;28;20207;-74
2021/09/07 03:16:46;;;;;;;22.50;19.40;;;15.60;99.90;;;;;;4938352;28;24980;-73
2021/09/07 03:19:14;;;;;;;152.70;137.33;;;15.60;99.90;;;;;;4939158;29;20199;-73
2021/09/07 03:21:41;;;;;;;210.80;186.50;;;15.60;99.90;;;;;;4943108;28;20246;-73
2021/09/07 03:24:11;;;;;;;22.30;18.23;;;15.60;99.90;;;;;;4941399;28;21397;-73
2021/09/07 03:26:37;;;;;;;20.10;17.13;;;15.60;99.90;;;;;;4955118;28;20681;-73
2021/09/07 03:29:03;;;;;;;21.60;17.03;;;15.60;99.90;;;;;;4944402;29;20627;-73
2021/09/07 03:31:30;;;;;;;22.53;17.70;;;15.50;99.90;;;;;;4923226;28;20211;-74
2021/09/07 03:33:56;;;;;;;24.20;17.23;;;15.40;99.90;;;;;;4944013;28;20620;-75
2021/09/07 03:36:21;;;;;;;20.07;16.97;;;15.40;99.90;;;;;;4941614;28;20654;-74
2021/09/07 03:38:49;;;;;;;21.00;17.03;;;15.40;99.90;;;;;;4927460;29;20199;-73
2021/09/07 03:41:17;;;;;;;26.20;20.60;;;15.30;99.90;;;;;;4936207;28;20225;-73
2021/09/07 03:43:46;;;;;;;21.30;17.90;;;15.30;99.90;;;;;;4945346;28;21214;-73
2021/09/07 03:46:14;;;;;;;139.87;128.17;;;15.30;99.90;;;;;;4935199;28;20631;-72
2021/09/07 03:48:40;;;;;;;35.42;31.73;;;15.20;99.90;;;;;;4938398;28;24525;-74
2021/09/07 03:51:07;;;;;;;21.57;17.80;;;15.20;99.90;;;;;;4925262;29;20350;-74
2021/09/07 03:53:33;;;;;;;240.50;219.20;;;15.30;99.90;;;;;;4939360;28;20697;-73
2021/09/07 03:56:01;;;;;;;20.97;16.93;;;15.30;99.90;;;;;;4940130;28;20697;-73
2021/09/07 03:58:27;;;;;;;20.07;16.83;;;15.20;99.90;;;;;;4938193;28;21067;-73
2021/09/07 04:00:53;;;;;;;22.23;17.00;;;15.10;99.90;;;;;;4938176;28;20750;-73
2021/09/07 04:03:19;;;;;;;20.20;16.77;;;15.10;99.90;;;;;;4923984;29;20218;-73
2021/09/07 04:05:45;;;;;;;23.43;17.53;;;15.10;99.90;;;;;;4941406;28;20216;-73
2021/09/07 04:08:11;;;;;;;20.63;16.53;;;15.10;99.90;;;;;;4925221;29;20625;-73
2021/09/07 04:10:37;;;;;;;19.30;16.00;;;15.10;99.90;;;;;;4940339;28;20650;-73
2021/09/07 04:13:06;;;;;;;21.23;17.00;;;15.00;99.90;;;;;;4935955;28;20619;-74
2021/09/07 04:15:34;;;;;;;20.13;18.03;;;15.00;99.90;;;;;;4934449;28;20227;-73
2021/09/07 04:17:59;;;;;;;178.53;163.97;;;14.90;99.90;;;;;;4939689;28;20619;-73
2021/09/07 04:20:25;;;;;;;20.88;17.92;;;14.90;99.90;;;;;;4940499;28;24580;-73
2021/09/07 04:22:50;;;;;;;22.17;17.50;;;14.90;99.90;;;;;;4942583;28;20192;-73
2021/09/07 04:25:19;;;;;;;21.10;18.80;;;14.90;99.90;;;;;;4938759;28;20711;-73
2021/09/07 04:27:44;;;;;;;18.93;15.60;;;14.90;99.90;;;;;;4938582;28;20210;-73
2021/09/07 04:30:11;;;;;;;33.07;30.17;;;14.90;99.90;;;;;;4942052;28;20722;-73
2021/09/07 04:32:39;;;;;;;20.73;16.80;;;14.80;99.90;;;;;;4937254;28;20543;-73
2021/09/07 04:35:08;;;;;;;22.47;16.50;;;14.70;99.90;;;;;;4945505;28;20966;-73
2021/09/07 04:37:37;;;;;;;21.07;16.60;;;14.60;99.90;;;;;;4942537;28;20647;-73
2021/09/07 04:40:05;;;;;;;21.17;16.60;;;14.50;99.90;;;;;;4943094;28;21124;-73
2021/09/07 04:42:31;;;;;;;23.80;16.97;;;14.50;99.90;;;;;;4941711;28;20710;-73
2021/09/07 04:44:59;;;;;;;19.70;16.53;;;14.60;99.90;;;;;;4939852;28;20655;-73
2021/09/07 04:47:24;;;;;;;19.70;15.93;;;14.60;99.90;;;;;;4921701;29;20196;-73
2021/09/07 04:49:57;;;;;;;17.10;14.23;;;14.60;99.90;;;;;;4939323;28;20690;-74
2021/09/07 04:52:25;;;;;;;19.63;14.90;;;14.60;99.90;;;;;;4937593;29;20856;-73
2021/09/07 04:54:50;;;;;;;23.50;15.67;;;14.70;99.90;;;;;;4937898;28;20650;-73
2021/09/07 04:57:16;;;;;;;21.17;16.53;;;14.70;99.90;;;;;;4937346;28;20645;-73
2021/09/07 04:59:42;;;;;;;56.33;51.83;;;14.70;99.90;;;;;;4939380;28;20204;-73
2021/09/07 05:02:07;;;;;;;19.20;17.20;;;14.70;99.90;;;;;;4943889;28;20222;-73
2021/09/07 05:04:33;;;;;;;19.73;16.30;;;14.70;99.90;;;;;;4941585;28;20219;-73
2021/09/07 05:07:00;;;;;;;18.30;15.87;;;14.70;99.90;;;;;;4928507;28;20196;-73
2021/09/07 05:09:26;;;;;;;64.13;57.53;;;14.80;99.90;;;;;;4937084;28;20192;-72
2021/09/07 05:11:52;;;;;;;17.97;15.83;;;14.80;99.90;;;;;;4942521;28;21004;-73
2021/09/07 05:14:17;;;;;;;18.87;15.77;;;14.80;99.90;;;;;;4945176;28;20271;-73
2021/09/07 05:16:43;;;;;;;20.40;16.33;;;14.90;99.90;;;;;;4938642;28;20695;-73
2021/09/07 05:19:09;;;;;;;20.60;16.97;;;14.80;99.90;;;;;;4938154;28;20224;-73
2021/09/07 05:21:40;;;;;;;20.20;16.43;;;14.70;99.90;;;;;;4933462;28;20228;-74
2021/09/07 05:24:06;;;;;;;18.30;15.83;;;14.70;99.90;;;;;;4934056;28;20643;-73
2021/09/07 05:26:31;;;;;;;18.80;15.20;;;14.70;99.90;;;;;;4927809;28;20632;-73
2021/09/07 05:29:01;;;;;;;20.23;15.97;;;14.70;99.90;;;;;;4928973;28;20192;-74
2021/09/07 05:31:27;;;;;;;21.60;16.67;;;14.60;99.90;;;;;;4932531;28;20712;-73
2021/09/07 05:33:53;;;;;;;23.50;17.83;;;14.70;99.90;;;;;;4910982;29;20845;-74
2021/09/07 05:36:18;;;;;;;21.47;18.10;;;14.70;99.90;;;;;;4917543;28;20220;-73
2021/09/07 05:38:44;;;;;;;53.07;46.13;;;14.70;99.90;;;;;;4933371;28;20230;-74
2021/09/07 05:41:09;;;;;;;23.93;20.10;;;14.70;99.90;;;;;;4919190;28;20219;-73
2021/09/07 05:43:35;;;;;;;24.67;18.20;;;14.70;99.90;;;;;;4940237;29;20309;-73
2021/09/07 05:46:00;;;;;;;22.93;16.97;;;14.70;99.90;;;;;;4926866;28;20705;-74
2021/09/07 05:48:26;;;;;;;22.37;18.77;;;14.70;99.90;;;;;;4938133;28;20306;-73
2021/09/07 05:50:52;;;;;;;74.10;62.03;;;14.70;99.90;;;;;;4925551;29;21439;-73
2021/09/07 05:53:17;;;;;;;26.25;20.35;;;14.70;99.90;;;;;;4935253;29;24442;-74
2021/09/07 05:55:43;;;;;;;26.90;22.07;;;14.70;99.90;;;;;;4935556;28;20227;-73
2021/09/07 05:58:08;;;;;;;24.30;21.00;;;14.80;99.90;;;;;;4938481;28;20192;-74
2021/09/07 06:00:34;;;;;;;25.27;22.10;;;14.90;99.90;;;;;;4938857;28;20226;-73
2021/09/07 06:03:08;;;;;;;23.73;18.70;;;14.90;99.90;;;;;;4926268;29;20194;-74
2021/09/07 06:05:36;;;;;;;23.83;19.17;;;14.90;99.90;;;;;;4940827;28;20656;-73
2021/09/07 06:08:02;;;;;;;23.57;20.03;;;15.00;99.90;;;;;;4931410;28;20627;-74
2021/09/07 06:10:28;;;;;;;51.50;30.70;;;15.00;99.90;;;;;;4934765;29;20761;-73
2021/09/07 06:12:53;;;;;;;26.90;22.03;;;15.10;99.90;;;;;;4945828;29;20630;-75
2021/09/07 06:15:19;;;;;;;26.30;22.00;;;15.20;99.90;;;;;;4954278;28;20219;-74
2021/09/07 06:17:44;;;;;;;29.50;23.37;;;15.30;99.90;;;;;;4938091;28;20196;-74
2021/09/07 06:20:10;;;;;;;23.80;21.20;;;15.40;99.90;;;;;;4931589;28;20707;-74
2021/09/07 06:22:36;;;;;;;27.27;22.37;;;15.40;99.90;;;;;;4937146;28;20195;-74
2021/09/07 06:25:03;;;;;;;28.70;24.90;;;15.50;99.90;;;;;;4937652;28;21123;-74
2021/09/07 06:27:30;;;;;;;32.57;24.63;;;15.60;99.90;;;;;;4933595;28;20198;-74
2021/09/07 06:29:55;;;;;;;30.93;27.40;;;15.60;99.90;;;;;;4937932;29;20618;-74
2021/09/07 06:32:21;;;;;;;27.00;22.03;;;15.60;99.90;;;;;;4938240;28;21254;-74
2021/09/07 06:34:47;;;;;;;218.37;196.27;;;15.70;99.90;;;;;;4939401;28;20291;-75
2021/09/07 06:37:12;;;;;;;23.83;21.27;;;15.80;99.90;;;;;;4924540;28;20206;-74
2021/09/07 06:39:38;;;;;;;25.70;22.70;;;15.90;99.90;;;;;;4933533;28;20199;-75
2021/09/07 06:42:05;;;;;;;24.33;19.83;;;16.00;99.90;;;;;;4918268;29;20227;-73
2021/09/07 06:44:31;;;;;;;22.77;20.30;;;15.90;99.90;;;;;;4931171;28;20312;-74
2021/09/07 06:46:56;;;;;;;22.30;20.00;;;15.90;99.90;;;;;;4938581;28;21178;-74
2021/09/07 06:49:22;;;;;;;24.47;20.33;;;16.00;99.90;;;;;;4932883;28;21175;-75
2021/09/07 06:51:47;;;;;;;310.93;243.03;;;16.00;99.90;;;;;;4938200;28;20679;-74
2021/09/07 06:54:13;;;;;;;36.90;33.65;;;16.10;99.90;;;;;;4935882;28;24965;-75
2021/09/07 06:56:38;;;;;;;22.53;18.53;;;16.30;99.90;;;;;;4931295;28;20231;-75
2021/09/07 06:59:04;;;;;;;23.70;19.27;;;16.40;99.90;;;;;;4937494;28;20278;-74
2021/09/07 07:01:29;;;;;;;24.53;19.30;;;16.60;99.90;;;;;;4935707;28;20231;-74
2021/09/07 07:03:55;;;;;;;20.83;18.70;;;16.60;99.90;;;;;;4917273;28;20597;-75
2021/09/07 07:06:20;;;;;;;25.30;19.30;;;16.60;99.90;;;;;;4918295;28;20561;-74
2021/09/07 07:08:46;;;;;;;24.40;19.77;;;16.70;99.90;;;;;;4937082;28;20663;-74
2021/09/07 07:11:11;;;;;;;19.73;17.43;;;16.80;99.90;;;;;;4922176;28;20215;-75
2021/09/07 07:13:37;;;;;;;19.67;17.57;;;16.80;99.90;;;;;;4920456;28;20264;-74
2021/09/07 07:16:03;;;;;;;20.00;16.90;;;16.80;99.90;;;;;;4934752;28;20251;-75
2021/09/07 07:18:28;;;;;;;16.53;14.73;;;16.80;99.90;;;;;;4918798;29;20192;-74
2021/09/07 07:20:54;;;;;;;17.00;14.80;;;16.80;99.90;;;;;;4932715;28;20218;-74
2021/09/07 07:23:19;;;;;;;15.67;14.27;;;16.90;99.90;;;;;;4933277;28;20214;-74
2021/09/07 07:25:45;;;;;;;15.53;13.90;;;16.90;99.90;;;;;;4931758;28;20226;-75
2021/09/07 07:28:10;;;;;;;14.70;12.17;;;17.00;99.90;;;;;;4938385;28;20218;-74
2021/09/07 07:30:36;;;;;;;14.90;13.20;;;17.00;99.90;;;;;;4916309;28;20220;-74
2021/09/07 07:33:01;;;;;;;13.30;12.00;;;17.00;99.90;;;;;;4924958;28;20246;-75
2021/09/07 07:35:27;;;;;;;15.27;13.40;;;17.10;99.90;;;;;;4931996;28;20330;-75
2021/09/07 07:37:53;;;;;;;13.63;12.23;;;17.10;99.90;;;;;;4936434;28;20192;-74
2021/09/07 07:40:21;;;;;;;13.63;12.10;;;17.20;99.90;;;;;;4933355;28;20999;-74
2021/09/07 07:42:46;;;;;;;15.80;13.60;;;17.30;99.90;;;;;;4936009;28;20541;-75
2021/09/07 07:45:12;;;;;;;17.13;13.07;;;17.30;99.90;;;;;;4934957;28;20647;-75
2021/09/07 07:47:37;;;;;;;12.33;11.10;;;17.40;99.90;;;;;;4935449;28;20202;-74
2021/09/07 07:50:03;;;;;;;13.33;11.93;;;17.30;99.90;;;;;;4943101;28;20198;-74
2021/09/07 07:52:29;;;;;;;13.53;10.63;;;17.40;99.90;;;;;;4941664;28;20191;-74
2021/09/07 07:54:54;;;;;;;9.93;8.90;;;17.50;99.90;;;;;;4938121;28;20647;-74
2021/09/07 07:57:20;;;;;;;9.80;9.00;;;17.50;99.90;;;;;;4938002;28;20331;-75
2021/09/07 07:59:46;;;;;;;8.07;7.27;;;17.50;99.90;;;;;;4937897;28;20188;-74
2021/09/07 08:02:12;;;;;;;8.10;7.30;;;17.70;99.90;;;;;;4938501;28;20718;-74
2021/09/07 08:04:39;;;;;;;8.93;7.60;;;17.70;99.90;;;;;;4935511;28;20647;-74
2021/09/07 08:07:05;;;;;;;7.80;7.10;;;17.80;99.90;;;;;;4937772;28;20199;-74
2021/09/07 08:09:31;;;;;;;8.50;7.70;;;17.90;99.90;;;;;;4938492;28;20619;-75
2021/09/07 08:11:58;;;;;;;8.80;6.90;;;17.90;99.90;;;;;;4937471;28;20281;-74
2021/09/07 08:14:24;;;;;;;8.00;7.07;;;17.90;99.90;;;;;;4918657;28;21104;-74
2021/09/07 08:16:49;;;;;;;8.07;5.70;;;18.00;99.90;;;;;;4920280;28;20696;-74
2021/09/07 08:19:18;;;;;;;8.30;7.43;;;18.10;99.90;;;;;;4923532;28;20906;-74
2021/09/07 08:21:43;;;;;;;5.63;5.03;;;18.20;99.90;;;;;;4936503;28;20565;-74
2021/09/07 08:24:17;;;;;;;7.10;5.83;;;18.20;99.90;;;;;;4938556;29;20659;-75
2021/09/07 08:26:43;;;;;;;6.67;5.50;;;18.20;99.90;;;;;;4935209;28;20321;-75
2021/09/07 08:29:08;;;;;;;7.80;6.60;;;18.30;99.90;;;;;;4938805;28;20627;-74
2021/09/07 08:31:34;;;;;;;8.30;6.60;;;18.30;99.90;;;;;;4922209;29;20600;-74
2021/09/07 08:33:59;;;;;;;8.30;7.50;;;18.30;99.90;;;;;;4938053;28;20281;-74
2021/09/07 08:36:25;;;;;;;7.37;6.23;;;18.30;99.90;;;;;;4936463;28;20809;-75
2021/09/07 08:38:50;;;;;;;7.57;6.17;;;18.30;99.90;;;;;;4919234;28;20195;-74
2021/09/07 08:41:19;;;;;;;8.30;6.73;;;18.40;99.90;;;;;;4941324;28;20386;-74
2021/09/07 08:43:52;;;;;;;7.90;6.67;;;18.60;99.90;;;;;;4939708;29;20207;-74
2021/09/07 08:46:19;;;;;;;7.33;6.63;;;18.50;99.90;;;;;;4935732;28;20646;-75
2021/09/07 08:48:46;;;;;;;7.60;6.80;;;18.50;99.90;;;;;;4938147;28;20623;-74
2021/09/07 08:51:15;;;;;;;7.87;6.30;;;18.60;99.90;;;;;;4938873;28;20821;-75
2021/09/07 08:53:40;;;;;;;6.20;5.60;;;18.60;99.90;;;;;;4937723;28;20643;-74
2021/09/07 08:56:10;;;;;;;6.70;6.00;;;18.70;99.90;;;;;;4937974;28;20738;-74
2021/09/07 08:58:36;;;;;;;5.83;5.33;;;18.80;99.90;;;;;;4943206;29;20588;-74
2021/09/07 09:01:15;;;;;;;6.90;6.07;;;18.90;99.90;;;;;;4936212;28;20670;-74
2021/09/07 09:03:43;;;;;;;6.20;5.53;;;19.00;99.90;;;;;;4943580;28;21240;-74
2021/09/07 09:06:09;;;;;;;6.63;5.03;;;19.00;99.90;;;;;;4949836;28;20702;-75
2021/09/07 09:08:35;;;;;;;4.93;4.43;;;18.90;99.90;;;;;;4948885;28;21031;-74
2021/09/07 09:11:12;;;;;;;4.80;4.30;;;19.00;99.90;;;;;;4924046;28;20756;-75
2021/09/07 09:13:48;;;;;;;4.40;4.00;;;19.10;99.90;;;;;;4933783;28;20622;-75
2021/09/07 09:16:18;;;;;;;4.30;3.90;;;19.10;99.90;;;;;;4937438;28;20697;-75
2021/09/07 09:18:48;;;;;;;5.27;4.60;;;19.20;99.90;;;;;;4935095;28;20668;-74
2021/09/07 09:21:31;;;;;;;4.40;3.83;;;19.30;99.90;;;;;;4922119;29;20742;-75
2021/09/07 09:24:13;;;;;;;3.77;3.47;;;19.50;99.90;;;;;;4935919;28;20646;-74
2021/09/07 09:27:04;;;;;;;4.40;4.00;;;19.50;99.90;;;;;;4933375;28;20622;-74
2021/09/07 09:29:37;;;;;;;3.50;3.20;;;19.60;99.90;;;;;;4938348;28;20605;-74
2021/09/07 09:32:06;;;;;;;3.50;3.20;;;19.70;99.90;;;;;;4917939;28;20657;-74
2021/09/07 09:34:33;;;;;;;3.67;2.63;;;19.70;99.90;;;;;;4935795;28;20745;-74
2021/09/07 09:37:05;;;;;;;4.07;3.57;;;19.80;99.90;;;;;;4933896;28;20614;-74
2021/09/07 09:39:43;;;;;;;4.33;3.93;;;19.80;99.90;;;;;;4936929;28;21433;-74
2021/09/07 09:42:13;;;;;;;3.43;3.13;;;19.90;99.90;;;;;;4936748;28;20652;-74
2021/09/07 09:44:38;;;;;;;3.63;3.30;;;20.00;99.90;;;;;;4933287;28;20655;-74
2021/09/07 09:47:04;;;;;;;5.70;3.57;;;20.10;99.90;;;;;;4936343;28;20623;-74
2021/09/07 09:49:31;;;;;;;5.67;3.33;;;20.10;99.90;;;;;;4939181;28;22630;-74
2021/09/07 09:52:05;;;;;;;5.70;4.10;;;20.20;99.90;;;;;;4936084;28;20742;-75
2021/09/07 09:54:32;;;;;;;4.60;4.30;;;20.30;99.90;;;;;;4935534;28;20642;-74
2021/09/07 09:56:59;;;;;;;4.27;3.87;;;20.30;99.90;;;;;;4936652;28;20662;-75
2021/09/07 09:59:27;;;;;;;4.20;3.80;;;20.40;99.90;;;;;;4935950;28;20624;-74
2021/09/07 10:01:53;;;;;;;6.40;4.47;;;20.30;99.90;;;;;;4934796;28;21262;-75
2021/09/07 10:04:23;;;;;;;4.10;3.80;;;20.40;99.90;;;;;;4934490;28;20666;-73
2021/09/07 10:06:52;;;;;;;5.23;4.23;;;20.40;99.90;;;;;;4934154;28;21184;-75
2021/09/07 10:09:21;;;;;;;4.03;3.63;;;20.40;99.90;;;;;;4935931;28;20604;-75
2021/09/07 10:12:09;;;;;;;4.97;4.47;;;20.50;99.90;;;;;;4938210;28;20650;-74
2021/09/07 10:14:37;;;;;;;4.13;3.50;;;20.60;99.90;;;;;;4916778;28;20650;-74
2021/09/07 10:20:46;;;;;;;4.20;3.80;;;20.90;99.90;;;;;;4906855;28;20717;-74
2021/09/07 10:23:27;;;;;;;4.03;3.40;;;21.10;99.90;;;;;;4933464;28;20663;-74
2021/09/07 10:25:55;;;;;;;4.33;3.30;;;21.00;99.90;;;;;;4936717;28;20685;-75
2021/09/07 10:28:41;;;;;;;3.83;3.50;;;21.10;99.90;;;;;;4938837;28;20624;-74
2021/09/07 10:31:17;;;;;;;3.97;3.60;;;21.30;99.90;;;;;;4946620;28;21060;-74
2021/09/07 10:33:52;;;;;;;4.07;3.67;;;21.40;99.90;;;;;;4939153;28;21197;-75
2021/09/07 10:36:22;;;;;;;4.67;4.27;;;21.50;99.90;;;;;;4937979;28;20753;-74
2021/09/07 10:38:50;;;;;;;4.37;3.97;;;21.60;99.90;;;;;;4940776;28;20643;-75
2021/09/07 10:41:33;;;;;;;4.43;3.93;;;21.70;99.90;;;;;;4938332;28;20650;-74
2021/09/07 10:44:06;;;;;;;5.33;4.50;;;21.80;99.90;;;;;;4938220;28;20640;-74
2021/09/07 10:46:46;;;;;;;5.50;5.00;;;21.90;99.90;;;;;;4936674;28;20635;-75
2021/09/07 10:49:17;;;;;;;4.33;3.93;;;22.00;99.90;;;;;;4938284;28;20646;-75
2021/09/07 10:52:04;;;;;;;8.73;4.27;;;22.00;99.90;;;;;;4938260;28;20750;-75
2021/09/07 10:54:31;;;;;;;4.37;3.90;;;22.10;99.90;;;;;;4941700;28;20630;-76
2021/09/07 10:56:59;;;;;;;4.70;4.30;;;22.10;99.90;;;;;;4939714;28;20621;-75
2021/09/07 10:59:47;;;;;;;7.17;4.30;;;22.10;99.90;;;;;;4927058;28;20686;-74
2021/09/07 11:02:42;;;;;;;4.70;3.90;;;22.20;99.90;;;;;;4938652;28;20643;-76
2021/09/07 11:05:10;;;;;;;3.90;3.50;;;22.30;99.90;;;;;;4940171;28;20668;-74
2021/09/07 11:07:46;;;;;;;4.03;3.70;;;22.40;99.90;;;;;;4936266;28;20631;-75
2021/09/07 11:10:18;;;;;;;5.23;4.20;;;22.60;99.90;;;;;;4941917;28;20643;-74
2021/09/07 11:12:55;;;;;;;3.60;3.30;;;22.60;99.90;;;;;;4939187;28;20697;-75
2021/09/07 11:15:23;;;;;;;4.47;4.07;;;22.70;99.90;;;;;;4942894;28;21033;-75
2021/09/07 11:17:50;;;;;;;4.07;3.67;;;22.70;99.90;;;;;;4938860;28;21223;-75
2021/09/07 11:20:17;;;;;;;4.00;3.60;;;22.80;99.90;;;;;;4943148;28;20650;-74
2021/09/07 11:22:43;;;;;;;5.50;5.00;;;23.00;99.90;;;;;;4937080;28;21186;-75
2021/09/07 11:25:11;;;;;;;4.37;4.00;;;23.10;99.90;;;;;;4939224;28;21032;-75
2021/09/07 11:28:02;;;;;;;4.23;3.77;;;23.00;99.90;;;;;;4941923;28;20630;-74
2021/09/07 11:30:37;;;;;;;3.80;3.40;;;23.20;99.90;;;;;;4939790;28;20701;-74
2021/09/07 11:33:05;;;;;;;4.27;3.87;;;23.40;99.90;;;;;;4941487;28;20622;-75
2021/09/07 11:35:34;;;;;;;3.77;3.40;;;23.50;99.90;;;;;;4941462;28;20645;-74
2021/09/07 11:38:02;;;;;;;4.13;3.17;;;23.70;99.90;;;;;;4918701;29;20628;-75
2021/09/07 11:40:29;;;;;;;3.80;3.50;;;23.70;99.90;;;;;;4941258;28;20800;-74
2021/09/07 11:42:55;;;;;;;3.77;3.43;;;23.70;99.90;;;;;;4938093;28;23960;-74
2021/09/07 11:45:24;;;;;;;3.80;3.50;;;23.80;99.90;;;;;;4913138;28;20654;-75
2021/09/07 11:47:50;;;;;;;3.83;3.53;;;23.90;99.90;;;;;;4936357;28;21240;-74
2021/09/07 11:50:29;;;;;;;4.30;3.90;;;24.00;99.90;;;;;;4941066;28;20663;-74
2021/09/07 11:52:55;;;;;;;4.27;3.87;;;24.20;99.90;;;;;;4939318;28;20634;-75
2021/09/07 11:55:51;;;;;;;4.30;3.90;;;24.20;99.90;;;;;;4944135;28;20757;-75
2021/09/07 11:58:32;;;;;;;4.10;3.33;;;24.40;99.90;;;;;;4947270;28;20700;-77
2021/09/07 12:01:02;;;;;;;3.60;3.30;;;24.40;99.90;;;;;;4949830;28;20652;-74
2021/09/07 12:03:40;;;;;;;3.57;3.23;;;24.40;99.90;;;;;;4924926;28;21011;-74
2021/09/07 12:06:07;;;;;;;4.50;3.40;;;24.60;99.90;;;;;;4950335;28;20785;-75
2021/09/07 12:08:43;;;;;;;3.50;3.20;;;24.60;99.90;;;;;;4942706;28;20730;-75
2021/09/07 12:11:13;;;;;;;5.67;4.30;;;24.80;99.90;;;;;;4940593;28;20666;-76
2021/09/07 12:13:39;;;;;;;5.00;4.50;;;25.00;99.90;;;;;;4921870;29;20654;-74
2021/09/07 12:16:05;;;;;;;4.60;4.20;;;25.20;99.90;;;;;;4939859;28;20678;-75
2021/09/07 12:18:34;;;;;;;4.80;4.30;;;25.20;99.90;;;;;;4938160;28;20662;-75
2021/09/07 12:21:20;;;;;;;4.77;3.50;;;25.30;99.90;;;;;;4942206;28;20725;-75
2021/09/07 12:23:48;;;;;;;3.97;3.67;;;25.40;99.90;;;;;;4939248;29;20678;-76
2021/09/07 12:26:14;;;;;;;5.40;4.73;;;25.60;99.90;;;;;;4938089;28;20643;-75
2021/09/07 12:28:41;;;;;;;4.40;4.00;;;25.70;99.90;;;;;;4937152;28;21268;-76
2021/09/07 12:31:21;;;;;;;4.33;4.00;;;25.90;99.90;;;;;;4926668;29;20702;-74
2021/09/07 12:33:52;;;;;;;4.70;4.00;;;26.00;99.90;;;;;;4942151;28;20630;-75
2021/09/07 12:36:23;;;;;;;4.57;4.17;;;26.10;99.90;;;;;;4945308;28;21022;-75
2021/09/07 12:38:51;;;;;;;3.90;3.60;;;26.20;99.90;;;;;;4942818;28;20635;-75
2021/09/07 12:41:21;;;;;;;5.27;4.37;;;26.20;99.90;;;;;;4939716;28;20654;-74